Time;durP1;ratioP1;P1;durP2;ratioP2;P2;SDS_P1;SDS_P2;PMS_P1;PMS_P2;Temp;Humidity;BMP_temperature;BMP_pressure;BME280_temperature;BME280_humidity;BME280_pressure;Samples;Min_cycle;Max_cycle;Signal;HPM_P1;HPM_P2
2023/09/18 00:01:42;;;;;;;10.52;8.55;;;;;;;21.96;60.74;99411.69;4362639;32;32933;-88
2023/09/18 00:04:10;;;;;;;13.25;8.68;;;;;;;21.87;61.00;99415.47;4362681;32;32539;-87
2023/09/18 00:06:37;;;;;;;11.12;9.00;;;;;;;22.00;60.52;99410.69;4376402;32;33558;-88
2023/09/18 00:09:06;;;;;;;11.93;8.93;;;;;;;21.65;61.54;99407.31;4376358;32;33636;-87
2023/09/18 00:11:34;;;;;;;12.50;8.95;;;;;;;21.71;61.44;99409.78;4376231;32;33517;-87
2023/09/18 00:14:03;;;;;;;13.60;8.38;;;;;;;21.71;61.36;99404.50;4376162;32;33714;-87
2023/09/18 00:16:31;;;;;;;11.35;8.60;;;;;;;21.80;61.06;99406.87;4375937;32;34201;-87
2023/09/18 00:19:14;;;;;;;11.88;9.27;;;;;;;21.59;61.61;99402.19;4364078;32;33887;-88
2023/09/18 00:21:42;;;;;;;11.93;8.65;;;;;;;21.73;61.26;99396.53;4376092;32;33224;-87
2023/09/18 00:24:09;;;;;;;12.30;9.35;;;;;;;21.76;61.11;99394.66;4362732;32;33806;-87
2023/09/18 00:26:37;;;;;;;9.93;8.50;;;;;;;21.61;61.53;99403.03;4359151;32;34173;-87
2023/09/18 00:29:05;;;;;;;10.98;8.75;;;;;;;21.67;61.46;99402.88;4362813;32;32911;-87
2023/09/18 00:31:32;;;;;;;12.63;9.30;;;;;;;21.62;61.36;99404.75;4374455;32;33577;-87
2023/09/18 00:34:00;;;;;;;11.57;9.20;;;;;;;21.68;61.14;99396.66;4361464;32;34434;-88
2023/09/18 00:36:27;;;;;;;10.43;9.07;;;;;;;21.58;61.58;99406.59;4361682;32;34647;-87
2023/09/18 00:38:55;;;;;;;10.68;8.45;;;;;;;21.62;61.36;99399.47;4349441;32;33896;-86
2023/09/18 00:41:22;;;;;;;12.07;8.70;;;;;;;21.57;61.56;99399.59;4358930;32;32747;-87
2023/09/18 00:43:50;;;;;;;10.70;8.50;;;;;;;21.59;61.46;99391.63;4374818;32;33748;-88
2023/09/18 00:46:18;;;;;;;12.20;8.93;;;;;;;21.47;61.81;99399.91;4360445;32;33174;-87
2023/09/18 00:48:46;;;;;;;12.55;9.00;;;;;;;21.45;61.94;99394.69;4374361;32;33650;-87
2023/09/18 00:51:14;;;;;;;12.00;8.85;;;;;;;21.54;61.75;99394.41;4349223;32;33278;-88
2023/09/18 00:53:48;;;;;;;12.75;9.18;;;;;;;21.61;61.35;99395.97;4372873;32;34339;-88
2023/09/18 00:56:17;;;;;;;10.23;8.40;;;;;;;21.41;62.03;99395.69;4350042;32;34792;-88
2023/09/18 00:58:47;;;;;;;14.73;9.77;;;;;;;21.37;62.05;99397.53;4339397;32;32891;-87
2023/09/18 01:01:22;;;;;;;12.82;9.02;;;;;;;21.20;62.70;99397.09;4347521;32;34184;-88
2023/09/18 01:03:51;;;;;;;12.18;9.18;;;;;;;21.22;62.54;99395.28;4372544;32;33679;-88
2023/09/18 01:06:20;;;;;;;12.32;9.70;;;;;;;21.10;63.21;99392.94;4362172;32;35099;-87
2023/09/18 01:08:50;;;;;;;12.68;9.05;;;;;;;21.10;62.88;99385.94;4357014;32;33944;-87
2023/09/18 01:11:37;;;;;;;10.73;8.63;;;;;;;21.15;62.80;99388.44;4361283;32;32578;-87
2023/09/18 01:14:27;;;;;;;10.13;8.75;;;;;;;21.20;62.63;99386.53;4360621;32;33487;-87
2023/09/18 01:17:01;;;;;;;11.00;9.07;;;;;;;21.23;62.41;99378.56;4358987;32;33848;-88
2023/09/18 01:19:36;;;;;;;10.55;8.65;;;;;;;21.13;62.70;99384.97;4361980;32;34896;-86
2023/09/18 01:22:09;;;;;;;12.25;9.13;;;;;;;21.17;62.67;99381.34;4375169;32;34689;-86
2023/09/18 01:24:38;;;;;;;13.57;9.32;;;;;;;21.08;62.95;99385.09;4374188;32;33392;-88
2023/09/18 01:27:09;;;;;;;12.27;9.30;;;;;;;21.02;63.16;99382.59;4360808;32;35023;-87
2023/09/18 01:29:37;;;;;;;12.10;9.70;;;;;;;21.05;63.00;99379.03;4361484;32;34257;-87
2023/09/18 01:32:04;;;;;;;13.60;9.65;;;;;;;21.00;63.12;99380.94;4375743;32;32932;-87
2023/09/18 01:34:36;;;;;;;11.32;9.60;;;;;;;21.01;63.28;99380.03;4374467;32;33916;-87
2023/09/18 01:37:05;;;;;;;11.18;9.02;;;;;;;21.07;62.83;99387.78;4359625;32;33827;-86
2023/09/18 01:39:34;;;;;;;18.45;9.50;;;;;;;21.07;62.97;99391.28;4375192;32;33678;-87
2023/09/18 01:42:06;;;;;;;12.73;9.32;;;;;;;21.07;62.96;99382.50;4349150;32;31963;-86
2023/09/18 01:44:34;;;;;;;12.48;9.57;;;;;;;20.95;63.28;99385.44;4361170;32;34084;-86
2023/09/18 01:47:03;;;;;;;17.05;10.18;;;;;;;20.83;63.56;99387.50;4360259;32;35053;-87
2023/09/18 01:49:36;;;;;;;13.52;9.70;;;;;;;20.88;63.36;99385.63;4361469;32;33718;-87
2023/09/18 01:52:06;;;;;;;13.77;9.18;;;;;;;20.86;63.35;99387.41;4374901;32;34348;-86
2023/09/18 01:54:34;;;;;;;12.65;9.13;;;;;;;21.08;62.66;99386.88;4361215;32;34035;-86
2023/09/18 01:57:02;;;;;;;12.48;9.48;;;;;;;20.93;63.17;99382.00;4359896;32;35324;-87
2023/09/18 01:59:30;;;;;;;12.20;8.95;;;;;;;20.99;62.81;99381.84;4360999;32;34127;-87
2023/09/18 02:02:01;;;;;;;11.95;9.13;;;;;;;21.02;62.64;99377.34;4375307;32;33681;-87
2023/09/18 02:04:29;;;;;;;12.30;9.40;;;;;;;21.02;62.36;99373.84;4361971;32;34571;-87
2023/09/18 02:07:17;;;;;;;11.70;9.40;;;;;;;20.88;62.81;99376.84;4364380;32;33902;-87
2023/09/18 02:09:45;;;;;;;13.68;9.40;;;;;;;20.83;63.07;99384.84;4374530;32;34135;-88
2023/09/18 02:12:17;;;;;;;15.40;9.23;;;;;;;20.85;63.00;99375.16;4361460;32;32785;-88
2023/09/18 02:14:45;;;;;;;11.82;9.10;;;;;;;20.79;62.98;99385.84;4361361;32;32338;-88
2023/09/18 02:17:13;;;;;;;11.85;9.85;;;;;;;20.82;62.84;99379.62;4349136;32;34036;-87
2023/09/18 02:19:40;;;;;;;12.00;8.80;;;;;;;20.90;62.46;99377.66;4375108;32;33746;-87
2023/09/18 02:22:08;;;;;;;12.27;9.07;;;;;;;20.87;62.42;99378.63;4375335;32;34236;-87
2023/09/18 02:24:35;;;;;;;13.43;9.55;;;;;;;20.79;62.62;99383.22;4374675;32;34848;-87
2023/09/18 02:27:06;;;;;;;14.95;10.05;;;;;;;20.74;62.61;99390.38;4361477;32;33714;-87
2023/09/18 02:29:33;;;;;;;12.68;9.52;;;;;;;20.72;62.73;99394.84;4375170;32;34267;-88
2023/09/18 02:32:02;;;;;;;10.80;8.85;;;;;;;20.67;62.73;99390.56;4375200;32;33155;-87
2023/09/18 02:34:30;;;;;;;11.27;9.77;;;;;;;20.65;62.87;99395.88;4361621;32;34522;-88
2023/09/18 02:36:58;;;;;;;11.93;9.35;;;;;;;20.53;63.32;99393.53;4361576;32;34805;-87
2023/09/18 02:39:25;;;;;;;10.40;8.98;;;;;;;20.54;63.44;99395.28;4349057;32;32943;-87
2023/09/18 02:41:54;;;;;;;10.98;9.20;;;;;;;20.61;63.09;99399.50;4361522;32;34353;-87
2023/09/18 02:44:21;;;;;;;12.45;9.52;;;;;;;20.56;63.21;99393.44;4375012;32;34375;-86
2023/09/18 02:46:49;;;;;;;11.93;9.88;;;;;;;20.37;63.93;99399.13;4361227;32;34255;-87
2023/09/18 02:49:16;;;;;;;13.73;10.65;;;;;;;20.36;63.98;99399.16;4374868;32;33828;-87
2023/09/18 02:51:44;;;;;;;12.15;9.32;;;;;;;20.42;63.61;99402.53;4374912;32;33147;-87
2023/09/18 02:54:12;;;;;;;15.45;9.95;;;;;;;20.46;63.33;99407.72;4360963;32;33820;-86
2023/09/18 02:56:39;;;;;;;12.88;10.05;;;;;;;20.38;63.40;99399.97;4361318;32;34878;-88
2023/09/18 02:59:07;;;;;;;11.00;9.70;;;;;;;20.36;63.51;99402.66;4361112;32;34947;-88
2023/09/18 03:01:35;;;;;;;15.85;10.10;;;;;;;20.33;63.71;99405.38;4374784;32;33507;-88
2023/09/18 03:04:03;;;;;;;12.18;10.13;;;;;;;20.31;63.56;99401.91;4374685;32;34574;-88
2023/09/18 03:06:31;;;;;;;12.68;10.88;;;;;;;20.30;63.78;99408.06;4374879;32;34577;-88
2023/09/18 03:08:59;;;;;;;15.30;10.85;;;;;;;20.15;64.28;99404.03;4360879;32;34685;-88
2023/09/18 03:11:28;;;;;;;12.57;10.23;;;;;;;20.29;64.05;99400.22;4359855;32;33898;-87
2023/09/18 03:13:56;;;;;;;13.50;10.75;;;;;;;20.14;64.36;99399.66;4373980;32;34939;-87
2023/09/18 03:16:24;;;;;;;13.45;10.85;;;;;;;20.27;63.91;99394.13;4373285;32;34219;-87
2023/09/18 03:18:51;;;;;;;14.65;10.88;;;;;;;20.16;64.33;99384.69;4374181;32;35012;-87
2023/09/18 03:21:19;;;;;;;14.05;10.52;;;;;;;20.19;64.18;99383.75;4372463;32;33445;-87
2023/09/18 03:23:47;;;;;;;12.25;10.80;;;;;;;20.23;64.11;99380.16;4374555;32;34882;-88
2023/09/18 03:26:14;;;;;;;12.60;9.75;;;;;;;20.18;64.13;99382.03;4373696;32;34224;-88
2023/09/18 03:28:42;;;;;;;14.15;10.68;;;;;;;20.15;64.22;99384.72;4372831;32;34813;-88
2023/09/18 03:31:10;;;;;;;12.52;10.35;;;;;;;20.10;64.50;99378.69;4374316;32;33670;-86
2023/09/18 03:33:38;;;;;;;12.77;10.57;;;;;;;20.11;64.42;99376.03;4374184;32;35311;-88
2023/09/18 03:36:07;;;;;;;13.13;11.12;;;;;;;20.12;64.52;99376.91;4361625;32;34728;-88
2023/09/18 03:38:36;;;;;;;13.52;10.88;;;;;;;19.97;64.97;99372.84;4376140;32;34575;-88
2023/09/18 03:41:04;;;;;;;15.00;12.35;;;;;;;19.98;64.90;99376.34;4347985;32;34441;-88
2023/09/18 03:43:31;;;;;;;13.90;11.85;;;;;;;20.01;64.83;99376.28;4362137;32;34698;-87
2023/09/18 03:46:03;;;;;;;14.90;11.75;;;;;;;19.83;65.30;99381.03;4376336;32;33634;-88
2023/09/18 03:48:36;;;;;;;13.25;11.85;;;;;;;19.91;65.11;99378.25;4350597;32;33640;-87
2023/09/18 03:51:05;;;;;;;14.93;11.00;;;;;;;20.03;64.60;99382.38;4376296;32;34532;-87
2023/09/18 03:53:33;;;;;;;14.35;10.70;;;;;;;19.99;64.59;99380.72;4375775;32;33785;-87
2023/09/18 03:56:01;;;;;;;14.40;11.98;;;;;;;19.98;64.64;99378.97;4362834;32;33550;-88
2023/09/18 03:58:29;;;;;;;15.95;12.90;;;;;;;19.96;64.51;99379.00;4375769;32;33607;-87
2023/09/18 04:00:57;;;;;;;15.00;12.40;;;;;;;19.68;65.52;99376.97;4376599;32;34165;-87
2023/09/18 04:03:24;;;;;;;14.48;11.45;;;;;;;19.73;65.78;99374.22;4376567;32;33851;-87
2023/09/18 04:05:52;;;;;;;15.30;11.63;;;;;;;19.86;65.05;99365.19;4375938;32;34721;-88
2023/09/18 04:08:20;;;;;;;13.95;12.07;;;;;;;19.90;64.89;99372.12;4362434;32;33748;-88
2023/09/18 04:10:48;;;;;;;16.52;12.10;;;;;;;19.92;64.74;99365.03;4376103;32;34465;-87
2023/09/18 04:13:15;;;;;;;16.98;12.55;;;;;;;19.92;64.75;99365.03;4367870;32;34763;-88
2023/09/18 04:15:45;;;;;;;16.40;11.98;;;;;;;19.83;64.98;99360.00;4359950;32;34197;-88
2023/09/18 04:18:13;;;;;;;15.70;11.45;;;;;;;19.68;65.57;99361.19;4358357;32;33388;-87
2023/09/18 04:20:41;;;;;;;15.75;12.60;;;;;;;19.80;65.27;99354.78;4371242;32;33973;-88
2023/09/18 04:23:25;;;;;;;16.62;12.63;;;;;;;19.89;64.90;99351.97;4357249;32;34047;-87
2023/09/18 04:25:54;;;;;;;14.15;12.60;;;;;;;19.77;65.26;99344.34;4356413;32;34847;-87
2023/09/18 04:28:22;;;;;;;16.95;12.57;;;;;;;19.84;65.08;99342.44;4361785;32;32008;-87
2023/09/18 04:30:50;;;;;;;14.13;12.30;;;;;;;19.82;65.10;99353.00;4361280;32;33578;-87
2023/09/18 04:33:18;;;;;;;16.08;12.90;;;;;;;19.78;65.08;99348.72;4375327;32;33325;-87
2023/09/18 04:35:46;;;;;;;17.00;12.48;;;;;;;19.70;65.30;99340.13;4361470;32;33918;-88
2023/09/18 04:38:19;;;;;;;17.08;13.80;;;;;;;19.90;64.57;99344.94;4375102;32;34191;-88
2023/09/18 04:40:47;;;;;;;16.98;14.43;;;;;;;19.79;64.90;99347.81;4376016;32;33079;-88
2023/09/18 04:43:15;;;;;;;14.95;13.35;;;;;;;19.78;65.04;99348.72;4376017;32;34595;-87
2023/09/18 04:45:43;;;;;;;17.40;12.65;;;;;;;19.82;65.10;99347.75;4361024;32;34025;-88
2023/09/18 04:48:12;;;;;;;17.23;13.05;;;;;;;19.88;64.84;99352.84;4371243;32;34069;-88
2023/09/18 04:50:40;;;;;;;18.95;13.48;;;;;;;19.80;65.21;99348.66;4360784;32;32719;-88
2023/09/18 04:53:08;;;;;;;18.10;13.85;;;;;;;19.62;65.73;99353.44;4361144;32;35452;-87
2023/09/18 04:55:38;;;;;;;20.20;14.38;;;;;;;19.42;66.64;99347.69;4370875;32;34059;-81
2023/09/18 04:58:06;;;;;;;20.00;13.85;;;;;;;19.22;67.54;99342.81;4374538;32;34515;-82
2023/09/18 05:00:34;;;;;;;18.98;14.95;;;;;;;19.09;68.19;99343.94;4359647;32;32713;-83
2023/09/18 05:03:03;;;;;;;17.65;13.85;;;;;;;19.08;68.19;99342.22;4372687;32;33962;-84
2023/09/18 05:05:31;;;;;;;15.05;13.25;;;;;;;19.39;67.07;99348.59;4362042;32;33239;-82
2023/09/18 05:07:58;;;;;;;16.55;14.45;;;;;;;19.80;65.52;99349.53;4375921;32;33656;-82
2023/09/18 05:10:26;;;;;;;16.55;13.55;;;;;;;19.67;65.97;99348.06;4375782;32;33607;-82
2023/09/18 05:12:58;;;;;;;17.50;13.52;;;;;;;19.72;66.00;99348.84;4375637;32;33849;-82
2023/09/18 05:15:29;;;;;;;17.10;14.02;;;;;;;19.65;66.06;99350.72;4372531;32;34992;-90
2023/09/18 05:17:59;;;;;;;16.67;13.43;;;;;;;19.49;66.67;99351.06;4350956;32;33585;-84
2023/09/18 05:20:28;;;;;;;19.67;14.00;;;;;;;19.56;66.58;99350.03;4349816;32;34024;-82
2023/09/18 05:22:57;;;;;;;16.30;13.40;;;;;;;19.76;65.94;99347.88;4350491;32;33655;-84
2023/09/18 05:25:27;;;;;;;17.85;14.23;;;;;;;19.82;65.56;99350.38;4346994;32;34025;-82
2023/09/18 05:27:57;;;;;;;16.70;13.30;;;;;;;20.10;64.83;99360.28;4359852;32;34778;-93
2023/09/18 05:30:31;;;;;;;17.45;13.62;;;;;;;19.68;65.85;99355.06;4354666;32;33221;-86
2023/09/18 05:33:06;;;;;;;17.55;14.32;;;;;;;19.84;65.64;99358.22;4347669;32;35176;-82
2023/09/18 05:35:39;;;;;;;15.93;14.10;;;;;;;20.08;64.77;99354.19;4348321;32;34905;-80
2023/09/18 05:38:08;;;;;;;19.15;14.38;;;;;;;19.86;65.34;99348.53;4348063;32;33989;-82
2023/09/18 05:40:35;;;;;;;20.30;14.30;;;;;;;19.96;65.06;99349.19;4347570;32;33110;-81
2023/09/18 05:43:03;;;;;;;20.50;14.75;;;;;;;19.87;65.20;99350.28;4347274;32;33206;-89
2023/09/18 05:45:32;;;;;;;20.15;13.65;;;;;;;19.84;65.78;99347.69;4360958;32;34185;-81
2023/09/18 05:48:06;;;;;;;19.67;13.32;;;;;;;19.74;65.90;99344.41;4365028;32;34633;-81
2023/09/18 05:50:38;;;;;;;16.30;13.62;;;;;;;19.79;65.78;99342.53;4375517;32;33529;-85
2023/09/18 05:53:05;;;;;;;17.12;13.38;;;;;;;20.23;64.81;99343.31;4375795;32;33919;-82
2023/09/18 05:55:34;;;;;;;17.58;13.13;;;;;;;20.06;64.86;99342.81;4368760;32;33983;-81
2023/09/18 05:58:04;;;;;;;16.45;12.90;;;;;;;20.03;65.09;99343.75;4350760;32;34085;-82
2023/09/18 06:00:32;;;;;;;18.77;13.68;;;;;;;20.44;64.21;99335.78;4349079;32;33496;-80
2023/09/18 06:03:01;;;;;;;16.37;13.98;;;;;;;20.20;64.43;99338.13;4375586;32;34028;-80
2023/09/18 06:05:31;;;;;;;16.62;13.48;;;;;;;20.39;63.96;99342.03;4349762;32;33207;-80
2023/09/18 06:08:00;;;;;;;17.60;13.52;;;;;;;20.40;63.84;99348.16;4362476;32;34581;-80
2023/09/18 06:10:27;;;;;;;18.30;13.80;;;;;;;19.96;64.72;99343.94;4372421;32;33349;-80
2023/09/18 06:12:55;;;;;;;18.45;13.62;;;;;;;19.92;65.52;99340.50;4361924;32;34406;-79
2023/09/18 06:15:23;;;;;;;19.65;13.07;;;;;;;20.02;65.00;99341.16;4374669;32;33921;-81
2023/09/18 06:17:50;;;;;;;18.23;13.32;;;;;;;20.42;63.64;99334.06;4365488;32;34531;-81
2023/09/18 06:20:18;;;;;;;17.50;13.93;;;;;;;20.36;63.96;99342.09;4369412;32;33668;-83
2023/09/18 06:22:45;;;;;;;19.20;14.07;;;;;;;20.09;64.77;99332.22;4370166;32;34554;-83
2023/09/18 06:25:14;;;;;;;17.37;13.48;;;;;;;19.85;65.38;99326.62;4374749;32;35131;-82
2023/09/18 06:27:42;;;;;;;17.02;14.10;;;;;;;19.99;65.19;99334.19;4366807;32;33608;-86
2023/09/18 06:30:10;;;;;;;18.25;13.70;;;;;;;20.09;65.00;99327.84;4361478;32;34274;-85
2023/09/18 06:32:37;;;;;;;18.48;14.40;;;;;;;20.34;64.52;99330.75;4375234;32;35041;-85
2023/09/18 06:35:05;;;;;;;17.98;13.55;;;;;;;20.36;64.46;99323.66;4374797;32;34358;-85
2023/09/18 06:37:34;;;;;;;18.17;14.02;;;;;;;20.14;65.05;99328.56;4375011;32;34510;-83
2023/09/18 06:40:03;;;;;;;16.48;14.10;;;;;;;20.29;65.13;99329.13;4375272;32;33699;-83
2023/09/18 06:42:32;;;;;;;17.62;14.25;;;;;;;20.62;63.89;99319.56;4370796;32;34666;-83
2023/09/18 06:45:01;;;;;;;21.40;14.00;;;;;;;20.51;63.46;99314.56;4345569;32;32690;-83
2023/09/18 06:47:30;;;;;;;18.90;14.82;;;;;;;20.40;63.97;99327.09;4374440;32;33797;-85
2023/09/18 06:49:58;;;;;;;22.50;14.93;;;;;;;20.19;64.52;99325.84;4347852;32;31694;-86
2023/09/18 06:52:27;;;;;;;18.83;15.10;;;;;;;20.50;64.06;99317.25;4360264;32;33687;-82
2023/09/18 06:54:55;;;;;;;18.12;14.70;;;;;;;20.73;63.97;99325.41;4361780;32;34074;-85
2023/09/18 06:57:22;;;;;;;18.25;13.65;;;;;;;20.83;63.20;99321.63;4374430;32;33478;-87
2023/09/18 06:59:50;;;;;;;18.20;14.10;;;;;;;20.73;63.38;99324.56;4374365;32;33251;-84
2023/09/18 07:02:18;;;;;;;18.02;13.43;;;;;;;20.93;63.14;99314.34;4361241;32;33921;-84
2023/09/18 07:04:46;;;;;;;19.77;14.20;;;;;;;20.87;63.19;99315.37;4374817;32;34256;-85
2023/09/18 07:07:15;;;;;;;19.05;14.45;;;;;;;21.07;62.07;99316.63;4375512;32;34981;-83
2023/09/18 07:09:42;;;;;;;18.95;15.18;;;;;;;20.59;63.59;99319.62;4363364;32;34241;-85
2023/09/18 07:12:31;;;;;;;18.25;14.20;;;;;;;20.65;63.82;99330.03;4376655;32;33657;-85
2023/09/18 07:15:03;;;;;;;17.40;14.10;;;;;;;20.83;63.57;99307.56;4376788;32;33841;-82
2023/09/18 07:17:35;;;;;;;21.30;14.95;;;;;;;20.94;63.33;99315.19;4376789;32;34637;-85
2023/09/18 07:20:13;;;;;;;18.02;14.25;;;;;;;20.92;63.24;99311.75;4362996;32;32612;-86
2023/09/18 07:22:45;;;;;;;19.75;15.70;;;;;;;21.10;62.60;99316.50;4371377;32;33993;-85
2023/09/18 07:25:13;;;;;;;25.48;14.45;;;;;;;21.06;63.32;99314.84;4368425;32;33725;-84
2023/09/18 07:27:44;;;;;;;19.50;16.12;;;;;;;21.09;62.47;99318.28;4376725;32;33945;-84
2023/09/18 07:30:16;;;;;;;21.40;15.40;;;;;;;21.02;62.65;99308.81;4350914;32;34221;-87
2023/09/18 07:32:44;;;;;;;17.58;14.00;;;;;;;21.27;62.64;99311.62;4376819;32;33460;-84
2023/09/18 07:35:14;;;;;;;22.15;14.70;;;;;;;21.64;60.84;99318.50;4376440;32;33930;-85
2023/09/18 07:37:44;;;;;;;16.85;14.05;;;;;;;21.83;60.37;99314.41;4376956;32;33828;-85
2023/09/18 07:40:12;;;;;;;19.02;14.75;;;;;;;21.58;61.47;99313.41;4363264;32;34158;-87
2023/09/18 07:42:39;;;;;;;17.87;13.90;;;;;;;21.81;60.75;99307.44;4362711;32;33127;-84
2023/09/18 07:45:07;;;;;;;19.20;14.43;;;;;;;21.82;60.59;99307.41;4376333;32;34894;-87
2023/09/18 07:47:35;;;;;;;16.52;14.70;;;;;;;22.04;60.41;99307.56;4376213;32;33481;-87
2023/09/18 07:50:03;;;;;;;20.48;14.05;;;;;;;22.13;60.11;99309.09;4376069;32;33647;-85
2023/09/18 07:52:31;;;;;;;21.92;15.57;;;;;;;22.20;59.65;99308.00;4376423;32;34790;-85
2023/09/18 07:54:59;;;;;;;21.42;14.65;;;;;;;22.11;59.63;99308.25;4376570;32;33768;-85
2023/09/18 07:57:31;;;;;;;19.73;15.15;;;;;;;22.10;59.87;99303.91;4376316;32;34145;-86
2023/09/18 08:00:09;;;;;;;18.08;13.57;;;;;;;22.41;59.36;99300.28;4350531;32;32400;-84
2023/09/18 08:02:41;;;;;;;17.45;14.48;;;;;;;22.59;58.92;99289.94;4375710;32;33808;-86
2023/09/18 08:05:10;;;;;;;19.60;14.02;;;;;;;22.77;58.06;99290.25;4350737;32;33400;-85
2023/09/18 08:07:38;;;;;;;20.48;15.05;;;;;;;23.25;56.64;99286.75;4377478;32;34695;-86
2023/09/18 08:10:08;;;;;;;19.15;14.30;;;;;;;23.20;56.74;99296.66;4377354;32;33257;-86
2023/09/18 08:12:36;;;;;;;21.45;13.73;;;;;;;23.49;56.17;99292.94;4376896;32;33676;-83
2023/09/18 08:15:06;;;;;;;22.02;14.52;;;;;;;23.65;55.91;99283.47;4376153;32;34226;-85
2023/09/18 08:17:33;;;;;;;18.95;13.82;;;;;;;23.62;55.74;99278.31;4362389;32;34138;-85
2023/09/18 08:20:07;;;;;;;19.25;12.75;;;;;;;23.54;55.79;99275.94;4376605;32;32466;-85
2023/09/18 08:22:34;;;;;;;17.42;13.02;;;;;;;23.73;55.69;99269.97;4376142;32;34841;-84
2023/09/18 08:25:02;;;;;;;19.73;12.65;;;;;;;23.29;56.52;99269.84;4376133;32;35139;-84
2023/09/18 08:27:30;;;;;;;16.10;12.77;;;;;;;23.72;55.44;99268.25;4376287;32;33862;-85
2023/09/18 08:29:58;;;;;;;17.85;13.80;;;;;;;23.71;55.97;99267.38;4376081;32;34132;-83
2023/09/18 08:32:25;;;;;;;16.55;12.60;;;;;;;23.54;56.20;99268.00;4376304;32;33940;-82
2023/09/18 08:34:54;;;;;;;15.75;11.65;;;;;;;24.11;54.84;99265.78;4376217;32;34270;-87
2023/09/18 08:37:22;;;;;;;17.42;11.98;;;;;;;24.21;55.40;99268.94;4376519;32;33794;-86
2023/09/18 08:39:49;;;;;;;14.68;12.27;;;;;;;24.45;54.43;99259.13;4375991;32;33214;-83
2023/09/18 08:42:18;;;;;;;15.55;12.77;;;;;;;24.47;53.17;99263.44;4374459;32;33895;-86
2023/09/18 08:44:48;;;;;;;16.90;11.88;;;;;;;24.25;53.74;99262.59;4362471;32;34875;-83
2023/09/18 08:47:18;;;;;;;15.32;12.02;;;;;;;24.35;54.73;99258.59;4362801;32;35662;-86
2023/09/18 08:49:49;;;;;;;15.10;12.50;;;;;;;24.26;54.43;99259.84;4376076;32;33691;-85
2023/09/18 08:52:17;;;;;;;17.00;12.40;;;;;;;24.47;53.50;99262.56;4362402;32;34696;-84
2023/09/18 08:54:45;;;;;;;17.30;12.02;;;;;;;24.44;54.19;99268.00;4376129;32;33518;-85
2023/09/18 08:57:13;;;;;;;15.05;11.40;;;;;;;24.57;53.37;99252.44;4375876;32;34587;-86
2023/09/18 08:59:41;;;;;;;16.35;11.80;;;;;;;24.52;53.50;99269.41;4362411;32;32937;-88
2023/09/18 09:02:11;;;;;;;15.05;11.88;;;;;;;24.55;53.15;99260.47;4361675;32;33422;-88
2023/09/18 09:04:39;;;;;;;16.70;12.13;;;;;;;24.36;53.80;99275.34;4362599;32;33590;-84
2023/09/18 09:07:07;;;;;;;14.55;10.68;;;;;;;24.16;53.97;99278.84;4362548;32;34737;-88
2023/09/18 09:09:35;;;;;;;13.23;11.30;;;;;;;24.31;54.00;99274.69;4362337;32;33171;-85
2023/09/18 09:12:03;;;;;;;15.15;11.10;;;;;;;24.68;53.36;99277.53;4375702;32;33997;-85
2023/09/18 09:14:30;;;;;;;18.02;12.13;;;;;;;24.79;53.36;99274.44;4350066;32;33873;-85
2023/09/18 09:16:58;;;;;;;15.40;12.15;;;;;;;24.69;52.80;99278.41;4375897;32;33358;-83
2023/09/18 09:19:29;;;;;;;16.00;11.40;;;;;;;24.39;53.72;99270.81;4362248;32;33125;-82
2023/09/18 09:21:58;;;;;;;13.35;10.70;;;;;;;24.72;52.55;99268.53;4361989;32;34801;-84
2023/09/18 09:24:43;;;;;;;14.45;10.88;;;;;;;24.77;53.43;99276.28;4358843;32;34052;-85
2023/09/18 09:27:12;;;;;;;18.90;11.40;;;;;;;24.90;52.38;99271.31;4348206;32;33960;-82
2023/09/18 09:29:40;;;;;;;16.25;11.43;;;;;;;24.74;53.02;99258.72;4347536;32;33540;-86
2023/09/18 09:32:16;;;;;;;21.08;10.48;;;;;;;25.04;52.41;99258.31;4357117;32;33392;-84
2023/09/18 09:34:46;;;;;;;14.45;10.77;;;;;;;25.17;51.69;99259.50;4375837;32;34597;-90
2023/09/18 09:37:13;;;;;;;15.45;10.50;;;;;;;25.34;52.09;99260.50;4349685;32;32740;-83
2023/09/18 09:39:51;;;;;;;16.65;10.05;;;;;;;25.61;50.87;99268.97;4375520;32;33246;-88
2023/09/18 09:42:28;;;;;;;17.10;10.93;;;;;;;25.42;51.56;99263.66;4361839;32;34657;-83
2023/09/18 09:45:16;;;;;;;12.80;10.40;;;;;;;25.76;50.31;99264.72;4375715;32;34239;-85
2023/09/18 09:47:44;;;;;;;17.42;10.43;;;;;;;25.97;50.12;99253.13;4375497;32;34659;-84
2023/09/18 09:50:15;;;;;;;13.13;10.40;;;;;;;25.85;49.77;99245.75;4375636;32;32795;-85
2023/09/18 09:52:44;;;;;;;14.80;10.00;;;;;;;25.69;50.62;99254.41;4359082;32;113540;-84
2023/09/18 09:55:31;;;;;;;13.98;10.25;;;;;;;25.77;50.60;99240.78;4360064;32;33954;-83
2023/09/18 09:58:01;;;;;;;16.37;9.93;;;;;;;25.61;50.45;99232.69;4361930;32;34030;-85
2023/09/18 10:00:49;;;;;;;13.15;10.13;;;;;;;25.93;49.78;99230.28;4361512;32;33381;-85
2023/09/18 10:03:19;;;;;;;12.68;10.27;;;;;;;25.88;50.18;99229.66;4361894;32;33747;-86
2023/09/18 10:05:49;;;;;;;14.02;10.15;;;;;;;26.12;49.39;99224.94;4361526;32;34926;-85
2023/09/18 10:08:22;;;;;;;15.23;10.07;;;;;;;26.39;49.36;99220.88;4362168;32;33761;-87
2023/09/18 10:10:52;;;;;;;13.88;9.80;;;;;;;26.19;49.52;99227.19;4361987;32;32343;-86
2023/09/18 10:13:46;;;;;;;17.52;11.45;;;;;;;26.54;48.16;99207.75;4361939;32;33617;-85
2023/09/18 10:16:20;;;;;;;14.87;10.27;;;;;;;26.30;48.68;99197.44;4362134;32;34064;-83
2023/09/18 10:19:07;;;;;;;13.20;9.40;;;;;;;26.25;49.57;99211.88;4375793;32;33954;-83
2023/09/18 10:21:52;;;;;;;16.12;10.27;;;;;;;26.65;48.43;99198.28;4375029;32;33738;-86
2023/09/18 10:24:25;;;;;;;21.17;11.02;;;;;;;26.49;48.54;99197.38;4361892;32;33787;-84
2023/09/18 10:26:58;;;;;;;14.25;10.10;;;;;;;26.28;48.81;99187.81;4374224;32;34745;-85
2023/09/18 10:29:26;;;;;;;14.35;9.10;;;;;;;26.44;48.32;99181.62;4369018;32;34140;-87
2023/09/18 10:31:54;;;;;;;13.02;10.43;;;;;;;26.96;47.81;99191.31;4354812;32;34221;-85
2023/09/18 10:34:23;;;;;;;16.05;10.35;;;;;;;26.98;46.86;99178.81;4361837;32;33872;-84
2023/09/18 10:36:54;;;;;;;20.88;10.52;;;;;;;26.80;47.16;99177.13;4375319;32;33877;-84
2023/09/18 10:39:26;;;;;;;12.40;9.57;;;;;;;27.22;47.46;99181.94;4375014;32;34890;-84
2023/09/18 10:41:55;;;;;;;14.60;9.50;;;;;;;27.01;46.81;99176.00;4361101;32;34345;-86
2023/09/18 10:44:23;;;;;;;15.30;9.55;;;;;;;27.33;45.95;99171.56;4362090;32;33703;-87
2023/09/18 10:46:52;;;;;;;12.88;9.10;;;;;;;27.45;46.57;99163.84;4375133;32;34964;-87
2023/09/18 10:49:20;;;;;;;12.45;9.32;;;;;;;27.72;44.94;99159.59;4361658;32;34606;-85
2023/09/18 10:51:48;;;;;;;15.82;9.45;;;;;;;27.33;45.73;99165.38;4349190;32;32515;-85
2023/09/18 10:54:19;;;;;;;12.63;9.68;;;;;;;27.44;45.48;99157.66;4361438;32;33949;-86
2023/09/18 10:56:47;;;;;;;13.10;9.50;;;;;;;27.50;45.70;99159.94;4361595;32;34700;-86
2023/09/18 10:59:17;;;;;;;11.80;9.55;;;;;;;27.58;44.95;99167.53;4361536;32;33985;-87
2023/09/18 11:01:50;;;;;;;14.40;9.35;;;;;;;27.52;44.96;99166.06;4361508;32;32745;-85
2023/09/18 11:04:19;;;;;;;14.20;9.48;;;;;;;27.87;44.48;99153.41;4374961;32;34654;-85
2023/09/18 11:06:53;;;;;;;15.27;9.57;;;;;;;27.85;44.45;99160.66;4361292;32;33829;-86
2023/09/18 11:09:26;;;;;;;12.90;9.73;;;;;;;27.88;43.88;99148.91;4374965;32;33752;-86
2023/09/18 11:11:57;;;;;;;13.05;9.88;;;;;;;27.93;44.28;99146.87;4374718;32;34340;-84
2023/09/18 11:14:49;;;;;;;10.55;9.45;;;;;;;27.62;44.16;99140.63;4374790;32;33772;-85
2023/09/18 11:17:33;;;;;;;13.35;9.73;;;;;;;27.81;45.29;99137.78;4360797;32;33212;-87
2023/09/18 11:20:23;;;;;;;14.02;9.77;;;;;;;28.10;44.00;99124.53;4374562;32;34769;-84
2023/09/18 11:23:18;;;;;;;13.07;9.43;;;;;;;27.87;43.93;99120.56;4374524;32;33650;-86
2023/09/18 11:25:48;;;;;;;;;;;;;;;27.97;44.05;99127.09;4374646;32;33691;-85
2023/09/18 11:28:23;;;;;;;14.25;10.07;;;;;;;27.73;44.11;99124.03;4361079;32;33562;-85
2023/09/18 11:30:57;;;;;;;14.10;9.77;;;;;;;27.69;44.74;99119.81;4374312;32;33902;-84
2023/09/18 11:33:44;;;;;;;17.10;10.07;;;;;;;27.52;44.44;99120.78;4374482;32;33476;-85